Time;durP1;ratioP1;P1;durP2;ratioP2;P2;SDS_P1;SDS_P2;PMS_P1;PMS_P2;Temp;Humidity;BMP_temperature;BMP_pressure;BME280_temperature;BME280_humidity;BME280_pressure;Samples;Min_cycle;Max_cycle;Signal;HPM_P1;HPM_P2
2023/01/20 00:00:39;;;;;;;;;;;17.90;46.40;;;;;;4994854;28;19921;-52
2023/01/20 00:03:04;;;;;;;;;;;17.90;45.90;;;;;;5004293;28;19917;-52
2023/01/20 00:05:30;;;;;;;;;;;17.90;45.90;;;;;;4994959;28;19922;-54
2023/01/20 00:07:55;;;;;;;;;;;17.80;45.90;;;;;;5008333;28;19996;-54
2023/01/20 00:10:20;;;;;;;;;;;17.80;46.00;;;;;;5005553;28;19914;-54
2023/01/20 00:12:46;;;;;;;;;;;17.80;46.00;;;;;;5001581;28;19919;-54
2023/01/20 00:15:11;;;;;;;;;;;17.70;46.00;;;;;;5002213;28;19948;-53
2023/01/20 00:17:37;;;;;;;;;;;17.70;46.00;;;;;;5012351;28;20003;-54
2023/01/20 00:20:02;;;;;;;;;;;17.60;46.30;;;;;;5004785;28;19914;-53
2023/01/20 00:22:28;;;;;;;;;;;17.60;46.30;;;;;;5001475;28;19910;-52
2023/01/20 00:24:53;;;;;;;;;;;17.60;46.40;;;;;;5009369;28;19940;-52
2023/01/20 00:27:19;;;;;;;;;;;17.70;46.30;;;;;;5005980;28;19917;-52
2023/01/20 00:29:45;;;;;;;;;;;17.60;46.40;;;;;;4997030;28;20023;-53
2023/01/20 00:32:11;;;;;;;;;;;17.60;46.50;;;;;;4997275;28;20259;-53
2023/01/20 00:34:36;;;;;;;;;;;17.60;46.60;;;;;;5010798;28;20016;-52
2023/01/20 00:37:01;;;;;;;;;;;17.50;46.30;;;;;;5044239;28;20008;-52
2023/01/20 00:39:27;;;;;;;;;;;17.50;46.40;;;;;;4999600;28;19914;-52
2023/01/20 00:41:52;;;;;;;;;;;17.50;46.40;;;;;;4999816;28;19941;-52
2023/01/20 00:44:18;;;;;;;;;;;17.50;46.50;;;;;;5006981;28;19968;-52
2023/01/20 00:46:43;;;;;;;;;;;17.50;46.50;;;;;;4995172;28;19914;-54
2023/01/20 00:49:10;;;;;;;;;;;17.40;46.60;;;;;;4999277;28;20425;-52
2023/01/20 00:51:36;;;;;;;;;;;17.40;46.60;;;;;;4993847;28;19945;-52
2023/01/20 00:54:01;;;;;;;;;;;17.40;46.60;;;;;;4997710;28;19913;-52
2023/01/20 00:56:27;;;;;;;;;;;17.30;46.70;;;;;;5013289;28;19956;-52
2023/01/20 00:58:54;;;;;;;;;;;17.30;46.70;;;;;;5003203;28;20243;-52
2023/01/20 01:01:20;;;;;;;;;;;17.30;46.80;;;;;;4995691;28;20350;-52
2023/01/20 01:03:45;;;;;;;;;;;17.20;46.80;;;;;;4993684;28;19967;-52
2023/01/20 01:06:11;;;;;;;;;;;17.20;46.80;;;;;;4994201;28;19914;-52
2023/01/20 01:08:37;;;;;;;;;;;17.20;47.00;;;;;;4998270;28;19932;-52
2023/01/20 01:11:02;;;;;;;;;;;17.20;47.00;;;;;;5013290;28;19914;-52
2023/01/20 01:13:28;;;;;;;;;;;17.20;47.00;;;;;;5007386;28;19920;-51
2023/01/20 01:15:53;;;;;;;;;;;17.10;47.00;;;;;;5005337;28;19914;-54
2023/01/20 01:18:19;;;;;;;;;;;17.10;47.10;;;;;;4999355;28;20427;-51
2023/01/20 01:20:44;;;;;;;;;;;17.10;47.10;;;;;;5016946;28;19919;-52
2023/01/20 01:23:10;;;;;;;;;;;17.10;47.10;;;;;;5010867;28;20582;-52
2023/01/20 01:25:36;;;;;;;;;;;17.10;47.10;;;;;;4993977;28;19948;-53
2023/01/20 01:28:01;;;;;;;;;;;17.00;47.20;;;;;;4993666;28;19914;-53
2023/01/20 01:30:27;;;;;;;;;;;17.00;47.10;;;;;;5005203;28;19913;-52
2023/01/20 01:32:52;;;;;;;;;;;17.00;47.10;;;;;;5008167;28;19914;-53
2023/01/20 01:35:18;;;;;;;;;;;17.00;47.20;;;;;;4993618;28;19909;-54
2023/01/20 01:37:43;;;;;;;;;;;17.00;47.30;;;;;;5000310;28;19920;-54
2023/01/20 01:40:09;;;;;;;;;;;16.90;47.30;;;;;;5000858;28;19956;-54
2023/01/20 01:42:34;;;;;;;;;;;16.90;47.20;;;;;;5012821;28;20519;-54
2023/01/20 01:45:09;;;;;;;;;;;16.90;47.20;;;;;;5003643;28;20334;-54
2023/01/20 01:47:34;;;;;;;;;;;16.90;47.20;;;;;;4993323;28;19917;-53
2023/01/20 01:50:00;;;;;;;;;;;16.80;47.30;;;;;;5038608;28;19917;-54
2023/01/20 01:52:25;;;;;;;;;;;16.80;47.20;;;;;;5027110;28;19918;-54
2023/01/20 01:54:51;;;;;;;;;;;16.80;47.10;;;;;;5003538;28;19917;-55
2023/01/20 01:57:17;;;;;;;;;;;16.80;47.10;;;;;;5000357;28;19936;-54
2023/01/20 01:59:42;;;;;;;;;;;16.80;47.10;;;;;;4999727;28;19914;-54
2023/01/20 02:02:08;;;;;;;;;;;16.80;47.20;;;;;;4993060;28;19953;-54
2023/01/20 02:04:34;;;;;;;;;;;16.70;47.20;;;;;;5009316;28;19924;-54
2023/01/20 02:06:59;;;;;;;;;;;16.70;47.30;;;;;;5005839;28;20422;-53
2023/01/20 02:09:25;;;;;;;;;;;16.70;47.30;;;;;;4999575;28;20282;-53
2023/01/20 02:11:54;;;;;;;;;;;16.70;47.30;;;;;;5044196;28;19916;-53
2023/01/20 02:14:24;;;;;;;;;;;16.80;46.90;;;;;;5010161;28;20324;-53
2023/01/20 02:17:08;;;;;;;;;;;16.90;46.60;;;;;;5012493;28;19914;-54
2023/01/20 02:19:43;;;;;;;;;;;17.00;46.40;;;;;;5000150;28;19918;-53
2023/01/20 02:22:47;;;;;;;;;;;17.30;46.90;;;;;;5043982;28;20016;-54
2023/01/20 02:25:16;;;;;;;;;;;17.50;46.40;;;;;;5012732;28;19974;-54
2023/01/20 02:27:47;;;;;;;;;;;18.00;45.60;;;;;;5009955;28;19913;-51
2023/01/20 02:30:31;;;;;;;;;;;18.60;44.80;;;;;;5010353;28;20301;-52
2023/01/20 02:32:57;;;;;;;;;;;19.10;43.70;;;;;;4992635;28;19971;-54
2023/01/20 02:35:22;;;;;;;;;;;19.70;42.60;;;;;;5025392;28;19993;-54
2023/01/20 02:37:57;;;;;;;;;;;20.00;42.00;;;;;;5010597;28;20484;-52
2023/01/20 02:40:33;;;;;;;;;;;19.90;42.00;;;;;;5005170;28;20350;-52
2023/01/20 02:43:17;;;;;;;;;;;19.80;42.20;;;;;;5044079;28;19917;-52
2023/01/20 02:45:43;;;;;;;;;;;19.60;42.50;;;;;;5003244;28;20377;-51
2023/01/20 02:48:14;;;;;;;;;;;19.50;42.90;;;;;;5007202;28;20016;-52
2023/01/20 02:50:52;;;;;;;;;;;19.40;43.00;;;;;;5007382;28;20004;-53
2023/01/20 02:53:17;;;;;;;;;;;19.50;43.00;;;;;;5005097;28;19910;-52
2023/01/20 02:55:44;;;;;;;;;;;19.50;42.90;;;;;;5034274;28;19919;-52
2023/01/20 02:58:11;;;;;;;;;;;19.60;42.90;;;;;;5011940;28;20318;-54
2023/01/20 03:00:38;;;;;;;;;;;19.60;42.70;;;;;;5008981;28;19913;-52
2023/01/20 03:03:14;;;;;;;;;;;19.50;43.00;;;;;;5043921;28;19917;-52
2023/01/20 03:05:41;;;;;;;;;;;19.40;43.20;;;;;;4995785;28;19914;-52
2023/01/20 03:08:07;;;;;;;;;;;19.30;43.50;;;;;;4998616;28;20003;-52
2023/01/20 03:10:33;;;;;;;;;;;19.10;43.70;;;;;;4997094;28;19918;-52
2023/01/20 03:13:11;;;;;;;;;;;19.00;43.90;;;;;;5038977;28;19914;-52
2023/01/20 03:15:40;;;;;;;;;;;18.90;44.20;;;;;;5039086;28;19922;-52
2023/01/20 03:18:06;;;;;;;;;;;18.80;44.40;;;;;;5037057;28;20420;-52
2023/01/20 03:20:31;;;;;;;;;;;18.70;44.40;;;;;;5005892;28;20012;-52
2023/01/20 03:22:56;;;;;;;;;;;18.60;44.60;;;;;;5010790;28;20017;-52
2023/01/20 03:25:22;;;;;;;;;;;18.50;43.90;;;;;;5004966;28;19924;-52
2023/01/20 03:27:47;;;;;;;;;;;18.40;44.30;;;;;;5013748;28;19917;-52
2023/01/20 03:30:13;;;;;;;;;;;18.40;44.40;;;;;;5001830;28;19918;-53
2023/01/20 03:32:39;;;;;;;;;;;18.30;44.50;;;;;;5012171;28;19959;-52
2023/01/20 03:35:05;;;;;;;;;;;18.20;44.30;;;;;;5033522;28;20385;-52
2023/01/20 03:37:30;;;;;;;;;;;18.20;44.30;;;;;;4994292;28;19950;-54
2023/01/20 03:39:56;;;;;;;;;;;18.20;44.50;;;;;;5027801;28;20021;-51
2023/01/20 03:42:22;;;;;;;;;;;18.10;44.80;;;;;;4998046;28;19910;-52
2023/01/20 03:44:53;;;;;;;;;;;18.00;44.80;;;;;;4995488;28;19918;-53
2023/01/20 03:47:18;;;;;;;;;;;17.90;45.00;;;;;;4995556;28;19955;-54
2023/01/20 03:49:54;;;;;;;;;;;17.90;44.80;;;;;;5009813;28;19956;-53
2023/01/20 03:52:24;;;;;;;;;;;17.90;44.90;;;;;;5046443;28;19916;-54
2023/01/20 03:54:50;;;;;;;;;;;17.80;45.10;;;;;;5047104;28;19917;-52
2023/01/20 03:57:17;;;;;;;;;;;17.80;45.10;;;;;;4998778;28;20280;-52
2023/01/20 03:59:42;;;;;;;;;;;17.70;45.20;;;;;;5045285;28;19920;-52
2023/01/20 04:02:08;;;;;;;;;;;17.70;45.10;;;;;;5045174;28;19917;-52
2023/01/20 04:04:34;;;;;;;;;;;17.70;45.10;;;;;;4998386;28;19946;-53
2023/01/20 04:06:59;;;;;;;;;;;17.70;45.10;;;;;;5008333;28;19940;-54
2023/01/20 04:09:26;;;;;;;;;;;17.70;45.00;;;;;;4998856;28;19933;-53
2023/01/20 04:11:51;;;;;;;;;;;17.70;45.00;;;;;;5026380;28;20013;-53
2023/01/20 04:14:17;;;;;;;;;;;17.70;44.90;;;;;;5001402;28;19992;-52
2023/01/20 04:16:47;;;;;;;;;;;17.60;45.00;;;;;;4994950;28;19960;-53
2023/01/20 04:19:13;;;;;;;;;;;17.60;44.90;;;;;;5031131;28;19917;-52
2023/01/20 04:21:40;;;;;;;;;;;17.60;45.00;;;;;;5010569;28;19928;-54
2023/01/20 04:24:05;;;;;;;;;;;17.50;45.00;;;;;;5012466;28;20016;-51
2023/01/20 04:26:31;;;;;;;;;;;17.50;45.00;;;;;;5013924;28;19941;-52
2023/01/20 04:28:56;;;;;;;;;;;17.50;45.10;;;;;;5005630;28;19925;-52
2023/01/20 04:31:22;;;;;;;;;;;17.50;45.20;;;;;;4995098;28;19909;-52
2023/01/20 04:33:47;;;;;;;;;;;17.50;45.10;;;;;;5001760;28;20305;-52
2023/01/20 04:36:12;;;;;;;;;;;17.40;45.80;;;;;;5012132;28;19921;-53
2023/01/20 04:38:38;;;;;;;;;;;17.40;45.10;;;;;;5011985;28;19979;-52
2023/01/20 04:41:03;;;;;;;;;;;17.40;45.20;;;;;;5014071;28;19921;-52
2023/01/20 04:43:29;;;;;;;;;;;17.40;45.20;;;;;;5009486;28;20114;-52
2023/01/20 04:45:54;;;;;;;;;;;17.40;45.10;;;;;;4998015;28;19914;-52
2023/01/20 04:48:20;;;;;;;;;;;17.40;45.20;;;;;;5011918;28;19914;-52
2023/01/20 04:50:45;;;;;;;;;;;17.40;45.20;;;;;;5006653;28;20410;-52
2023/01/20 04:53:12;;;;;;;;;;;17.30;45.10;;;;;;5011057;28;19957;-52
2023/01/20 04:55:37;;;;;;;;;;;17.30;45.00;;;;;;4997310;28;19929;-52
2023/01/20 04:58:03;;;;;;;;;;;17.30;45.00;;;;;;5012261;28;20285;-52
2023/01/20 05:00:28;;;;;;;;;;;17.30;45.00;;;;;;4994516;28;19937;-52
2023/01/20 05:02:57;;;;;;;;;;;17.30;45.00;;;;;;4994818;28;19940;-52
2023/01/20 05:05:23;;;;;;;;;;;17.30;45.10;;;;;;4996729;28;19925;-52
2023/01/20 05:07:52;;;;;;;;;;;17.30;45.10;;;;;;4994011;28;19914;-52
2023/01/20 05:10:17;;;;;;;;;;;17.30;45.10;;;;;;4994637;28;19918;-53
2023/01/20 05:12:43;;;;;;;;;;;17.20;45.10;;;;;;5000381;28;20012;-53
2023/01/20 05:15:08;;;;;;;;;;;17.20;45.20;;;;;;5011709;28;19917;-54
2023/01/20 05:17:34;;;;;;;;;;;17.20;45.20;;;;;;4994279;28;19918;-54
2023/01/20 05:19:59;;;;;;;;;;;17.20;45.20;;;;;;5006361;28;19941;-53
2023/01/20 05:22:25;;;;;;;;;;;17.20;45.20;;;;;;5008798;28;20016;-53
2023/01/20 05:24:50;;;;;;;;;;;17.20;45.30;;;;;;5000061;28;19922;-54
2023/01/20 05:27:15;;;;;;;;;;;17.20;45.20;;;;;;5012640;28;19914;-54
2023/01/20 05:29:41;;;;;;;;;;;17.20;45.10;;;;;;4998447;28;19921;-54
2023/01/20 05:32:06;;;;;;;;;;;17.20;45.10;;;;;;5013329;28;19913;-53
2023/01/20 05:34:32;;;;;;;;;;;17.20;45.10;;;;;;5009957;28;19957;-53
2023/01/20 05:36:57;;;;;;;;;;;17.20;45.10;;;;;;5008706;28;19914;-54
2023/01/20 05:39:22;;;;;;;;;;;17.10;45.10;;;;;;4999029;28;19921;-53
2023/01/20 05:41:48;;;;;;;;;;;17.10;45.00;;;;;;4993005;28;19910;-53
2023/01/20 05:44:14;;;;;;;;;;;17.10;45.20;;;;;;5009080;28;20334;-53
2023/01/20 05:46:39;;;;;;;;;;;17.10;45.20;;;;;;4995946;28;19963;-53
2023/01/20 05:49:05;;;;;;;;;;;17.10;45.80;;;;;;4993997;28;20413;-52
2023/01/20 05:51:31;;;;;;;;;;;17.00;45.10;;;;;;4993128;28;20354;-53
2023/01/20 05:53:56;;;;;;;;;;;17.10;45.10;;;;;;5009309;28;19941;-53
2023/01/20 05:56:21;;;;;;;;;;;17.10;45.10;;;;;;4995986;28;20424;-53
2023/01/20 05:58:47;;;;;;;;;;;17.10;45.10;;;;;;4996867;28;20285;-53
2023/01/20 06:01:13;;;;;;;;;;;17.10;45.00;;;;;;4993364;28;20370;-53
2023/01/20 06:03:38;;;;;;;;;;;17.00;45.10;;;;;;4996066;28;20365;-53
2023/01/20 06:06:04;;;;;;;;;;;17.00;45.10;;;;;;5011365;28;20012;-53
2023/01/20 06:08:30;;;;;;;;;;;17.00;45.10;;;;;;5011271;28;20357;-53
2023/01/20 06:10:55;;;;;;;;;;;17.00;45.00;;;;;;5012150;28;19941;-53
2023/01/20 06:13:20;;;;;;;;;;;17.00;45.00;;;;;;5010758;28;20027;-53
2023/01/20 06:15:50;;;;;;;;;;;17.00;45.10;;;;;;5001478;28;20017;-52
2023/01/20 06:18:15;;;;;;;;;;;17.00;45.10;;;;;;4999962;28;19915;-53
2023/01/20 06:20:40;;;;;;;;;;;17.00;45.10;;;;;;5011697;28;20008;-53
2023/01/20 06:23:06;;;;;;;;;;;16.90;45.10;;;;;;5009148;28;19925;-53
2023/01/20 06:25:31;;;;;;;;;;;16.90;45.10;;;;;;5009988;28;19917;-53
2023/01/20 06:27:57;;;;;;;;;;;16.90;45.00;;;;;;4996802;28;19918;-53
2023/01/20 06:30:22;;;;;;;;;;;16.90;45.10;;;;;;5039395;28;19914;-53
2023/01/20 06:32:48;;;;;;;;;;;16.90;45.10;;;;;;5007287;28;19920;-53
2023/01/20 06:35:13;;;;;;;;;;;16.90;45.10;;;;;;4993199;28;19956;-53
2023/01/20 06:37:39;;;;;;;;;;;16.90;45.10;;;;;;4999549;28;19921;-53
2023/01/20 06:40:04;;;;;;;;;;;16.90;45.10;;;;;;5009359;28;19917;-53
2023/01/20 06:42:30;;;;;;;;;;;16.90;45.10;;;;;;5013550;28;19913;-53
2023/01/20 06:44:56;;;;;;;;;;;16.90;45.20;;;;;;4995592;28;20267;-53
2023/01/20 06:47:21;;;;;;;;;;;16.90;45.30;;;;;;4997411;28;20346;-53
2023/01/20 06:49:46;;;;;;;;;;;16.80;45.20;;;;;;4992729;28;20270;-53
2023/01/20 06:52:12;;;;;;;;;;;16.90;45.20;;;;;;5001742;28;19945;-53
2023/01/20 06:54:37;;;;;;;;;;;16.90;45.10;;;;;;4996532;28;19952;-53
2023/01/20 06:57:03;;;;;;;;;;;16.80;45.90;;;;;;5007150;28;19917;-52
2023/01/20 06:59:28;;;;;;;;;;;16.80;45.20;;;;;;5008755;28;19984;-52
2023/01/20 07:01:54;;;;;;;;;;;16.80;45.20;;;;;;5013087;28;19918;-52
2023/01/20 07:04:19;;;;;;;;;;;16.80;45.10;;;;;;5014369;28;19996;-53
2023/01/20 07:06:44;;;;;;;;;;;16.80;45.20;;;;;;5002159;28;19921;-53
2023/01/20 07:09:10;;;;;;;;;;;16.80;45.30;;;;;;5001114;28;19921;-53
2023/01/20 07:11:36;;;;;;;;;;;16.80;45.20;;;;;;5004938;28;20274;-53
2023/01/20 07:14:01;;;;;;;;;;;16.80;45.20;;;;;;5014672;28;19913;-53
2023/01/20 07:16:27;;;;;;;;;;;16.80;45.20;;;;;;5008085;28;20318;-53
2023/01/20 07:18:52;;;;;;;;;;;16.80;45.20;;;;;;5006128;28;19914;-53
2023/01/20 07:21:18;;;;;;;;;;;16.80;45.10;;;;;;5013506;28;19963;-53
2023/01/20 07:23:43;;;;;;;;;;;16.80;45.80;;;;;;5005117;28;19925;-53
2023/01/20 07:26:10;;;;;;;;;;;16.80;45.20;;;;;;4995821;28;19914;-53
2023/01/20 07:28:35;;;;;;;;;;;16.80;45.10;;;;;;5013659;28;19914;-53
2023/01/20 07:31:01;;;;;;;;;;;16.80;45.10;;;;;;5013550;28;19913;-53
2023/01/20 07:33:27;;;;;;;;;;;16.80;45.00;;;;;;5010986;28;20385;-53
2023/01/20 07:35:53;;;;;;;;;;;16.80;45.10;;;;;;5012069;28;19918;-53
2023/01/20 07:38:18;;;;;;;;;;;16.70;45.60;;;;;;5012224;28;19976;-53
2023/01/20 07:40:44;;;;;;;;;;;16.70;45.00;;;;;;5013304;28;20337;-53
2023/01/20 07:43:09;;;;;;;;;;;16.80;45.10;;;;;;5007754;28;19917;-53
2023/01/20 07:45:34;;;;;;;;;;;16.70;45.00;;;;;;5009677;28;19993;-53
2023/01/20 07:48:02;;;;;;;;;;;16.70;45.10;;;;;;4995880;28;19933;-53
2023/01/20 07:50:28;;;;;;;;;;;16.80;44.90;;;;;;4995921;28;20001;-54
2023/01/20 07:52:53;;;;;;;;;;;16.70;44.90;;;;;;5009486;28;20016;-53
2023/01/20 07:55:19;;;;;;;;;;;16.70;44.90;;;;;;5003551;28;19935;-53
2023/01/20 07:57:44;;;;;;;;;;;16.70;44.90;;;;;;4999674;28;19937;-54
2023/01/20 08:00:10;;;;;;;;;;;16.70;45.00;;;;;;5013183;28;20254;-53
2023/01/20 08:02:38;;;;;;;;;;;16.70;44.90;;;;;;4997699;28;20546;-53
2023/01/20 08:05:04;;;;;;;;;;;16.70;44.90;;;;;;5006761;28;20436;-53
2023/01/20 08:07:30;;;;;;;;;;;16.60;44.80;;;;;;5004575;28;19913;-53
2023/01/20 08:09:56;;;;;;;;;;;16.60;44.90;;;;;;4995650;28;19909;-53
2023/01/20 08:12:22;;;;;;;;;;;16.60;44.80;;;;;;5006489;28;19936;-53
2023/01/20 08:14:48;;;;;;;;;;;16.60;44.90;;;;;;5009064;28;19963;-53
2023/01/20 08:17:13;;;;;;;;;;;16.60;45.00;;;;;;5003219;28;20008;-53
2023/01/20 08:19:38;;;;;;;;;;;16.60;45.10;;;;;;5013327;28;19989;-53
2023/01/20 08:22:04;;;;;;;;;;;16.60;45.00;;;;;;5012658;28;20289;-53
2023/01/20 08:24:29;;;;;;;;;;;16.60;45.10;;;;;;5014594;28;20294;-53
2023/01/20 08:26:55;;;;;;;;;;;16.60;45.00;;;;;;5001391;28;19953;-54
2023/01/20 08:29:20;;;;;;;;;;;16.60;45.10;;;;;;5009588;28;20008;-53
2023/01/20 08:31:46;;;;;;;;;;;16.60;45.10;;;;;;5014628;28;19909;-54
2023/01/20 08:34:11;;;;;;;;;;;16.50;45.00;;;;;;5005910;28;19921;-53
2023/01/20 08:36:37;;;;;;;;;;;16.60;45.40;;;;;;5007447;28;20338;-53
2023/01/20 08:39:04;;;;;;;;;;;16.90;45.30;;;;;;5014408;28;19913;-53
2023/01/20 08:41:30;;;;;;;;;;;17.50;44.30;;;;;;5010788;28;20371;-53
2023/01/20 08:43:56;;;;;;;;;;;18.10;43.30;;;;;;4996162;28;19917;-55
2023/01/20 08:46:22;;;;;;;;;;;18.70;42.60;;;;;;4998638;28;19968;-52
2023/01/20 08:48:48;;;;;;;;;;;19.30;42.10;;;;;;5002275;28;19957;-52
2023/01/20 08:51:15;;;;;;;;;;;19.90;40.20;;;;;;4993686;28;19914;-52
2023/01/20 08:53:40;;;;;;;;;;;20.50;39.30;;;;;;4996441;28;20271;-53
2023/01/20 08:56:07;;;;;;;;;;;20.90;38.40;;;;;;4998099;28;19917;-54
2023/01/20 08:58:32;;;;;;;;;;;21.20;38.00;;;;;;4994469;28;19914;-54
2023/01/20 09:00:58;;;;;;;;;;;21.40;37.50;;;;;;5006851;28;20333;-52
2023/01/20 09:03:23;;;;;;;;;;;21.60;37.50;;;;;;5005102;28;20001;-52
2023/01/20 09:05:49;;;;;;;;;;;21.70;37.40;;;;;;4995871;28;19964;-52
2023/01/20 09:08:14;;;;;;;;;;;21.80;37.20;;;;;;4994376;28;19968;-50
2023/01/20 09:10:40;;;;;;;;;;;21.90;37.20;;;;;;4996806;28;19917;-53
2023/01/20 09:13:05;;;;;;;;;;;22.00;37.30;;;;;;5007064;28;20000;-53
2023/01/20 09:15:31;;;;;;;;;;;22.10;37.20;;;;;;4994379;28;19913;-54
2023/01/20 09:17:57;;;;;;;;;;;22.10;37.10;;;;;;4999668;28;19920;-53
2023/01/20 09:20:24;;;;;;;;;;;22.20;37.00;;;;;;5010773;28;19920;-55
2023/01/20 09:22:50;;;;;;;;;;;22.30;37.10;;;;;;5016947;28;19925;-54
2023/01/20 09:25:15;;;;;;;;;;;22.30;36.80;;;;;;4993808;28;19918;-54
2023/01/20 09:27:41;;;;;;;;;;;22.40;36.60;;;;;;4993694;28;19913;-54
2023/01/20 09:30:06;;;;;;;;;;;22.40;36.50;;;;;;4993855;28;20140;-54
2023/01/20 09:32:32;;;;;;;;;;;22.50;36.60;;;;;;5009180;28;19920;-52
2023/01/20 09:34:58;;;;;;;;;;;22.60;36.50;;;;;;4997505;28;19921;-53
2023/01/20 09:45:49;;;;;;;;;;;22.60;36.50;;;;;;5001629;28;19920;-52
2023/01/20 09:54:06;;;;;;;;;;;22.60;36.40;;;;;;4997311;28;19929;-52
2023/01/20 09:56:32;;;;;;;;;;;22.70;36.60;;;;;;5043970;28;19937;-52
2023/01/20 09:58:59;;;;;;;;;;;22.70;36.60;;;;;;5035617;28;20369;-52
2023/01/20 10:01:29;;;;;;;;;;;22.70;36.60;;;;;;5037816;28;19914;-53
2023/01/20 10:04:00;;;;;;;;;;;22.80;36.60;;;;;;5035682;28;19933;-52
2023/01/20 10:06:32;;;;;;;;;;;22.80;36.50;;;;;;5024567;28;19914;-52
2023/01/20 10:09:13;;;;;;;;;;;22.80;36.50;;;;;;5028545;28;20033;-52
2023/01/20 10:11:39;;;;;;;;;;;22.80;36.40;;;;;;5004359;28;19914;-53
2023/01/20 10:14:25;;;;;;;;;;;22.90;36.50;;;;;;5050490;28;19917;-53
2023/01/20 10:16:53;;;;;;;;;;;22.90;36.50;;;;;;5008303;28;19975;-53
2023/01/20 10:19:38;;;;;;;;;;;23.00;36.50;;;;;;5001622;28;19913;-52
2023/01/20 10:22:35;;;;;;;;;;;23.00;36.40;;;;;;5004902;28;19918;-53
2023/01/20 10:25:05;;;;;;;;;;;22.90;36.40;;;;;;5003337;28;20353;-52
2023/01/20 10:27:30;;;;;;;;;;;23.00;36.50;;;;;;5026567;28;20001;-53
2023/01/20 10:29:57;;;;;;;;;;;23.00;36.40;;;;;;5026534;28;20356;-52
2023/01/20 10:32:32;;;;;;;;;;;23.00;36.40;;;;;;5031476;28;20274;-53
2023/01/20 10:34:59;;;;;;;;;;;23.00;36.50;;;;;;5012139;28;19914;-53
2023/01/20 10:37:25;;;;;;;;;;;23.00;36.50;;;;;;4996554;28;20373;-53
2023/01/20 10:39:55;;;;;;;;;;;23.00;36.50;;;;;;4994861;28;19910;-53
2023/01/20 10:42:20;;;;;;;;;;;23.10;36.50;;;;;;5028280;28;19913;-52
2023/01/20 10:44:46;;;;;;;;;;;23.10;36.40;;;;;;5040823;28;19924;-52
2023/01/20 10:47:27;;;;;;;;;;;23.10;36.30;;;;;;4998258;28;19995;-54
2023/01/20 10:49:55;;;;;;;;;;;23.10;37.00;;;;;;5008137;28;20382;-55
2023/01/20 10:52:30;;;;;;;;;;;23.20;36.40;;;;;;4997554;28;19956;-52
2023/01/20 10:54:55;;;;;;;;;;;23.20;36.40;;;;;;4995492;28;19914;-52
2023/01/20 10:57:20;;;;;;;;;;;23.20;36.30;;;;;;4995834;28;19910;-52
2023/01/20 10:59:53;;;;;;;;;;;23.20;36.30;;;;;;5025715;28;19914;-53
2023/01/20 11:02:23;;;;;;;;;;;23.30;36.30;;;;;;5033849;28;19963;-52
2023/01/20 11:04:51;;;;;;;;;;;23.30;36.30;;;;;;5005980;28;19917;-53
2023/01/20 11:07:17;;;;;;;;;;;23.30;36.30;;;;;;5032354;28;22251;-53
2023/01/20 11:09:42;;;;;;;;;;;23.30;36.30;;;;;;5022439;28;19920;-52
2023/01/20 11:12:15;;;;;;;;;;;23.30;36.30;;;;;;5009745;28;19996;-52
2023/01/20 11:14:41;;;;;;;;;;;23.30;36.40;;;;;;5037715;28;19922;-53
2023/01/20 11:17:07;;;;;;;;;;;23.20;36.60;;;;;;5000533;28;20607;-53
2023/01/20 11:19:52;;;;;;;;;;;23.20;36.80;;;;;;5008223;28;20007;-54
2023/01/20 11:22:30;;;;;;;;;;;23.10;36.90;;;;;;5010159;28;19913;-53
2023/01/20 11:24:59;;;;;;;;;;;22.80;37.60;;;;;;4998514;28;20349;-53
2023/01/20 11:27:26;;;;;;;;;;;22.60;38.10;;;;;;5009216;28;19918;-55
2023/01/20 11:29:55;;;;;;;;;;;22.40;38.30;;;;;;5031546;28;19920;-53
2023/01/20 11:32:25;;;;;;;;;;;22.10;38.80;;;;;;5037851;28;19959;-53
2023/01/20 11:34:51;;;;;;;;;;;22.10;39.00;;;;;;4998486;28;19921;-53
2023/01/20 11:37:17;;;;;;;;;;;22.10;39.10;;;;;;5016656;28;19918;-54
2023/01/20 11:39:46;;;;;;;;;;;22.10;39.00;;;;;;4996391;28;19921;-53
2023/01/20 11:42:20;;;;;;;;;;;22.00;39.20;;;;;;5006038;28;19909;-53
2023/01/20 11:44:46;;;;;;;;;;;21.90;39.30;;;;;;4997834;28;19929;-53
2023/01/20 11:47:22;;;;;;;;;;;22.10;39.10;;;;;;5010361;28;19921;-55
2023/01/20 11:50:03;;;;;;;;;;;22.20;39.20;;;;;;5016919;28;19955;-53
2023/01/20 11:52:35;;;;;;;;;;;22.20;39.00;;;;;;5041281;28;19913;-52
2023/01/20 11:55:18;;;;;;;;;;;22.20;39.00;;;;;;5008231;28;19913;-52
2023/01/20 11:57:54;;;;;;;;;;;22.30;39.00;;;;;;5006890;28;19920;-52
2023/01/20 12:00:19;;;;;;;;;;;22.30;38.90;;;;;;5034001;28;20378;-53
2023/01/20 12:03:03;;;;;;;;;;;22.40;38.90;;;;;;5022220;28;19959;-54
2023/01/20 12:05:40;;;;;;;;;;;22.30;39.00;;;;;;5012402;28;19918;-54
2023/01/20 12:08:07;;;;;;;;;;;22.30;38.90;;;;;;5048080;28;19981;-55
2023/01/20 12:10:33;;;;;;;;;;;22.40;39.10;;;;;;5015620;28;19963;-53
2023/01/20 12:13:00;;;;;;;;;;;22.50;38.90;;;;;;5045532;28;19977;-54
2023/01/20 12:15:28;;;;;;;;;;;22.40;39.20;;;;;;5056307;28;19936;-53
2023/01/20 12:17:55;;;;;;;;;;;22.40;39.00;;;;;;5006944;28;20020;-53
2023/01/20 12:20:20;;;;;;;;;;;22.40;39.30;;;;;;5009078;28;20625;-54
2023/01/20 12:22:53;;;;;;;;;;;22.40;39.30;;;;;;5009633;28;19914;-52
2023/01/20 12:25:26;;;;;;;;;;;22.30;39.90;;;;;;4998640;28;19972;-52
2023/01/20 12:27:53;;;;;;;;;;;22.30;39.20;;;;;;5005054;28;19917;-53
2023/01/20 12:30:30;;;;;;;;;;;22.30;39.30;;;;;;4998618;28;19922;-53
2023/01/20 12:32:55;;;;;;;;;;;22.30;39.50;;;;;;5014239;28;19921;-53
2023/01/20 12:35:21;;;;;;;;;;;22.10;39.70;;;;;;5013095;28;20004;-53
2023/01/20 12:37:49;;;;;;;;;;;22.10;39.60;;;;;;5023946;28;20353;-53
2023/01/20 12:40:44;;;;;;;;;;;22.30;40.00;;;;;;5016297;28;20412;-53
2023/01/20 12:43:28;;;;;;;;;;;22.70;39.30;;;;;;5012318;28;19984;-53
2023/01/20 12:46:09;;;;;;;;;;;23.20;38.40;;;;;;5030936;28;19954;-53
2023/01/20 12:48:37;;;;;;;;;;;23.40;38.00;;;;;;5003395;28;20266;-53
2023/01/20 12:51:16;;;;;;;;;;;23.50;38.00;;;;;;5000483;28;19948;-53
2023/01/20 12:53:52;;;;;;;;;;;23.50;38.00;;;;;;5010741;28;19968;-53
2023/01/20 12:56:39;;;;;;;;;;;23.60;37.90;;;;;;5008060;28;19940;-54
2023/01/20 12:59:15;;;;;;;;;;;23.70;38.00;;;;;;5011026;28;19960;-54
2023/01/20 13:01:50;;;;;;;;;;;23.70;37.80;;;;;;5010573;28;19918;-53
2023/01/20 13:04:24;;;;;;;;;;;23.70;37.80;;;;;;4998660;28;19926;-53
2023/01/20 13:06:53;;;;;;;;;;;23.70;37.80;;;;;;5007709;28;19913;-53
2023/01/20 13:09:22;;;;;;;;;;;23.80;37.70;;;;;;5008228;28;20280;-52
2023/01/20 13:11:48;;;;;;;;;;;23.90;37.50;;;;;;5010851;28;19925;-53
2023/01/20 13:14:14;;;;;;;;;;;23.90;37.40;;;;;;5001880;28;19913;-52
2023/01/20 13:16:39;;;;;;;;;;;23.80;37.50;;;;;;5032609;28;19921;-52
2023/01/20 13:19:14;;;;;;;;;;;23.80;37.50;;;;;;5008732;28;19913;-52
2023/01/20 13:21:41;;;;;;;;;;;23.80;37.70;;;;;;5037768;28;19979;-53
2023/01/20 13:24:14;;;;;;;;;;;23.80;37.80;;;;;;5001997;28;19930;-52
2023/01/20 13:26:40;;;;;;;;;;;23.80;37.60;;;;;;5035737;28;19949;-54
2023/01/20 13:29:11;;;;;;;;;;;23.80;37.60;;;;;;5035178;28;19984;-53
2023/01/20 13:31:36;;;;;;;;;;;23.80;37.60;;;;;;5032446;28;19921;-52
2023/01/20 13:34:20;;;;;;;;;;;23.80;37.70;;;;;;5000863;28;19921;-53
2023/01/20 13:37:16;;;;;;;;;;;23.80;37.60;;;;;;5002901;28;20298;-53
2023/01/20 13:39:42;;;;;;;;;;;23.80;37.80;;;;;;5034399;28;19914;-53
2023/01/20 13:42:26;;;;;;;;;;;23.80;37.70;;;;;;5010284;28;20044;-52
2023/01/20 13:45:11;;;;;;;;;;;23.80;37.70;;;;;;5002964;28;20000;-53
2023/01/20 13:47:49;;;;;;;;;;;23.80;37.80;;;;;;5016244;28;20397;-53
2023/01/20 13:50:26;;;;;;;;;;;23.90;37.70;;;;;;5005544;28;19923;-54
2023/01/20 13:52:52;;;;;;;;;;;23.90;37.80;;;;;;5008066;28;19914;-53
2023/01/20 13:55:48;;;;;;;;;;;23.90;37.70;;;;;;5017828;28;20008;-53
2023/01/20 13:58:22;;;;;;;;;;;23.90;37.70;;;;;;4998352;28;20378;-52
2023/01/20 14:00:48;;;;;;;;;;;24.00;37.70;;;;;;4999335;28;19918;-53
2023/01/20 14:03:20;;;;;;;;;;;24.00;37.70;;;;;;4997321;28;19925;-53
2023/01/20 14:05:49;;;;;;;;;;;23.80;37.80;;;;;;5005253;28;19918;-53
2023/01/20 14:08:15;;;;;;;;;;;23.70;38.00;;;;;;5000591;28;19921;-53
2023/01/20 14:10:41;;;;;;;;;;;23.60;38.20;;;;;;4999238;28;20372;-51
2023/01/20 14:13:22;;;;;;;;;;;23.60;38.50;;;;;;5039001;28;19918;-52
2023/01/20 14:15:49;;;;;;;;;;;23.50;38.50;;;;;;5025644;28;19917;-52
2023/01/20 14:18:15;;;;;;;;;;;23.80;38.50;;;;;;5009896;28;19918;-52
2023/01/20 14:20:40;;;;;;;;;;;23.90;38.80;;;;;;5008837;28;19976;-53
2023/01/20 14:23:20;;;;;;;;;;;24.10;37.90;;;;;;5002154;28;19987;-52
2023/01/20 14:25:54;;;;;;;;;;;24.20;37.50;;;;;;5031318;28;19917;-53
2023/01/20 14:28:20;;;;;;;;;;;24.30;37.60;;;;;;4998127;28;20389;-53
2023/01/20 14:30:45;;;;;;;;;;;24.30;37.60;;;;;;4994154;28;19909;-53
2023/01/20 14:33:12;;;;;;;;;;;24.30;37.70;;;;;;4995529;28;20189;-54
2023/01/20 14:35:37;;;;;;;;;;;24.30;37.70;;;;;;5005883;28;20593;-53